Have a Safe July 4th! 

Flight Track Log - Related Links

Times and Time Zones

All times are in EDT time to prevent confusion due to time zone crossing. See the SKW6345 flight status page for this flight to view local times or setup timezone preferences in your user account.

Time Position Orientation Groundspeed Altitude Reporting Facility
EDT Latitude Longitude Course Direction KTS MPH feet Rate Location/Type
Mon 12:40:31 PM 37.6500 -122.3500 38° Northeast 167 192 1,400  Level Northern Cal TRACON
Mon 12:41:31 PM 37.6833 -122.3000 50° Northeast 221 254 3,500 2,300 Climbing Northern Cal TRACON
Mon 12:42:31 PM 37.7500 -122.2667 22° Northeast 249 287 6,000 2,350 Climbing Northern Cal TRACON
Mon 12:43:00 PM 37.6890 -122.2944 38° Northeast  Level FlightAware Approximate
Mon 12:43:31 PM 37.8167 -122.2167 31° Northeast 272 313 8,200  Level Northern Cal TRACON
Mon 12:44:00 PM 37.7930 -122.1904 38° Northeast  Level FlightAware Approximate
Mon 12:45:00 PM 37.8970 -122.0863 38° Northeast  Level FlightAware Approximate
Mon 12:45:20 PM 37.9283 -122.1000 39° Northeast 302 348 11,800  Level Oakland Center
Mon 12:46:22 PM 38.0006 -122.0231 40° Northeast 333 383 12,800 1,171 Climbing Oakland Center
Mon 12:47:23 PM 38.0794 -121.9403 40° Northeast 362 417 14,200 1,366 Climbing Oakland Center
Mon 12:48:25 PM 38.1608 -121.8539 40° Northeast 377 434 15,600 1,317 Climbing Oakland Center
Mon 12:49:26 PM 38.2428 -121.7664 40° Northeast 384 442 16,900 1,279 Climbing Oakland Center
Mon 12:50:27 PM 38.3342 -121.6894 33° Northeast 391 450 18,200 1,366 Climbing Oakland Center
Mon 12:51:29 PM 38.4394 -121.6031 33° Northeast 397 457 19,700 1,268 Climbing Oakland Center
Mon 12:52:30 PM 38.5358 -121.5244 33° Northeast 403 464 20,800 1,024 Climbing Oakland Center
Mon 12:53:32 PM 38.6397 -121.4386 33° Northeast 418 481 21,800 927 Climbing Oakland Center
Mon 12:54:33 PM 38.7369 -121.3539 34° Northeast 425 489 22,700 829 Climbing Oakland Center
Mon 12:55:35 PM 38.8403 -121.2678 33° Northeast 431 496 23,500 1,317 Climbing Oakland Center
Mon 12:56:36 PM 38.9322 -121.1719 39° Northeast 431 496 25,400 1,512 Climbing Oakland Center
Mon 12:57:38 PM 39.0114 -121.0650 46° Northeast 414 476 26,600 878 Climbing Oakland Center
Mon 12:58:39 PM 39.1103 -120.9842 32° Northeast 422 486 27,200 590 Climbing Oakland Center
Mon 12:59:40 PM 39.2111 -120.9003 33° Northeast 429 494 27,800 585 Climbing Oakland Center
Mon 01:00:42 PM 39.3139 -120.8125 33° Northeast 440 506 28,400 585 Climbing Oakland Center
Mon 01:01:43 PM 39.4178 -120.7233 34° Northeast 446 513 29,000 634 Climbing Oakland Center
Mon 01:02:45 PM 39.5444 -120.6172 33° Northeast 451 519 29,700 634 Climbing Oakland Center
Mon 01:03:46 PM 39.6494 -120.5264 34° Northeast 452 520 30,300 639 Climbing Oakland Center
Mon 01:04:47 PM 39.7547 -120.4364 33° Northeast 452 520 31,000 634 Climbing Oakland Center
Mon 01:05:49 PM 39.8608 -120.3458 33° Northeast 455 524 31,600 585 Climbing Oakland Center
Mon 01:06:50 PM 39.9658 -120.2544 34° Northeast 455 524 32,200 585 Climbing Oakland Center
Mon 01:07:52 PM 40.0694 -120.1667 33° Northeast 450 518 32,800 390 Climbing Oakland Center
Mon 01:08:53 PM 40.1719 -120.0761 34° Northeast 446 513 33,000 98 Climbing Oakland Center
Mon 01:09:55 PM 40.2786 -119.9828 34° Northeast 457 526 33,000  Level Oakland Center
Mon 01:10:56 PM 40.4103 -119.8678 34° Northeast 468 539 33,000  Level Oakland Center
Mon 01:11:57 PM 40.5200 -119.7719 34° Northeast 472 543 33,000  Level Oakland Center
Mon 01:12:59 PM 40.6322 -119.6719 34° Northeast 481 554 33,000  Level Oakland Center
Mon 01:14:00 PM 40.7306 -119.5850 34° Northeast 476 548 33,000  Level Oakland Center
Mon 01:15:02 PM 40.8417 -119.4814 35° Northeast 480 552 33,000  Level Oakland Center
Mon 01:15:49 PM 40.9108 -119.3747 49° Northeast 482 555 33,000  Level Salt Lake Center
Mon 01:16:51 PM 41.0114 -119.2283 48° Northeast 481 554 33,000  Level Salt Lake Center
Mon 01:17:53 PM 41.0981 -119.1003 48° Northeast 484 557 33,000  Level Salt Lake Center
Mon 01:18:56 PM 41.1992 -118.9500 48° Northeast 487 560 33,000  Level Salt Lake Center
Mon 01:19:58 PM 41.2850 -118.8217 48° Northeast 485 558 33,000  Level Salt Lake Center
Mon 01:21:00 PM 41.3850 -118.6708 49° Northeast 486 559 33,000  Level Salt Lake Center
Mon 01:22:02 PM 41.4714 -118.5408 48° Northeast 487 560 33,000  Level Salt Lake Center
Mon 01:23:04 PM 41.5722 -118.3881 49° Northeast 490 564 33,000  Level Salt Lake Center
Mon 01:24:06 PM 41.6578 -118.2581 49° Northeast 486 559 33,000  Level Salt Lake Center
Mon 01:25:08 PM 41.7575 -118.1042 49° Northeast 489 563 33,000  Level Salt Lake Center
Mon 01:26:10 PM 41.8431 -117.9722 49° Northeast 489 563 33,000  Level Salt Lake Center
Mon 01:27:12 PM 41.9286 -117.8406 49° Northeast 489 563 33,000  Level Salt Lake Center
Mon 01:28:14 PM 42.0272 -117.6864 49° Northeast 487 560 33,000  Level Salt Lake Center
Mon 01:29:16 PM 42.1119 -117.5531 49° Northeast 488 562 33,000  Level Salt Lake Center
Mon 01:30:18 PM 42.2114 -117.3947 50° Northeast 494 568 33,000  Level Salt Lake Center
Mon 01:31:20 PM 42.3022 -117.2464 50° Northeast 486 559 33,000  Level Salt Lake Center
Mon 01:32:22 PM 42.3864 -117.1142 49° Northeast 485 558 33,000  Level Salt Lake Center
Mon 01:33:24 PM 42.4842 -116.9589 49° Northeast 486 559 33,000  Level Salt Lake Center
Mon 01:34:26 PM 42.5675 -116.8258 50° Northeast 484 557 33,000  Level Salt Lake Center
Mon 01:35:28 PM 42.6631 -116.6706 50° Northeast 482 555 33,000  Level Salt Lake Center
Mon 01:36:30 PM 42.7456 -116.5403 49° Northeast 476 548 33,000  Level Salt Lake Center
Mon 01:37:32 PM 42.8422 -116.3825 50° Northeast 482 555 33,000  Level Salt Lake Center
Mon 01:38:35 PM 42.9244 -116.2492 50° Northeast 482 555 33,000  Level Salt Lake Center
Mon 01:39:37 PM 43.0064 -116.1156 50° Northeast 479 551 33,000  Level Salt Lake Center
Mon 01:40:39 PM 43.1033 -115.9583 50° Northeast 485 558 33,000  Level Salt Lake Center
Mon 01:41:41 PM 43.1842 -115.8219 51° Northeast 482 555 33,000  Level Salt Lake Center
Mon 01:42:43 PM 43.2781 -115.6642 51° Northeast 480 552 33,000  Level Salt Lake Center
Mon 01:43:45 PM 43.3592 -115.5286 51° Northeast 482 555 33,000  Level Salt Lake Center
Mon 01:44:47 PM 43.4539 -115.3689 51° Northeast 487 560 33,000  Level Salt Lake Center
Mon 01:45:49 PM 43.5339 -115.2333 51° Northeast 479 551 33,000  Level Salt Lake Center
Mon 01:46:51 PM 43.6278 -115.0742 51° Northeast 479 551 33,000  Level Salt Lake Center
Mon 01:47:53 PM 43.7078 -114.9372 51° Northeast 478 550 33,000  Level Salt Lake Center
Mon 01:48:55 PM 43.8014 -114.7764 51° Northeast 479 551 33,000  Level Salt Lake Center
Mon 01:49:57 PM 43.8814 -114.6394 51° Northeast 479 551 33,000  Level Salt Lake Center
Mon 01:50:59 PM 43.9736 -114.4781 52° Northeast 480 552 33,000  Level Salt Lake Center
Mon 01:52:01 PM 44.0536 -114.3403 51° Northeast 480 552 33,000  Level Salt Lake Center
Mon 01:53:03 PM 44.1419 -114.1792 53° Northeast 474 545 33,000  Level Salt Lake Center
Mon 01:54:05 PM 44.2314 -114.0542 45° Northeast 476 548 33,000  Level Salt Lake Center
Mon 01:55:07 PM 44.3472 -113.9200 40° Northeast 480 552 33,000  Level Salt Lake Center
Mon 01:56:09 PM 44.4503 -113.8164 36° Northeast 476 548 33,000  Level Salt Lake Center
Mon 01:57:11 PM 44.5708 -113.6936 36° Northeast 477 549 33,000  Level Salt Lake Center
Mon 01:58:13 PM 44.6739 -113.5883 36° Northeast 477 549 33,000  Level Salt Lake Center
Mon 01:59:17 PM 44.8019 -113.4775 32° Northeast 481 554 33,000  Level Salt Lake Center
Mon 02:00:19 PM 44.9078 -113.3781 34° Northeast 480 552 33,000  Level Salt Lake Center
Mon 02:01:21 PM 45.0283 -113.2622 34° Northeast 474 545 33,000  Level Salt Lake Center
Mon 02:02:23 PM 45.1233 -113.1350 43° Northeast 482 555 33,000  Level Salt Lake Center
Mon 02:03:25 PM 45.2050 -112.9589 57° Northeast 480 552 33,000 -242 Level Salt Lake Center
Mon 02:04:27 PM 45.2617 -112.7981 63° Northeast 477 549 32,500 -1,016 Descending Salt Lake Center
Mon 02:05:29 PM 45.3125 -112.6369 66° East 470 541 30,900 -2,516 Descending Salt Lake Center
Mon 02:06:31 PM 45.3775 -112.4353 65° Northeast 483 556 27,300 -3,145 Descending Salt Lake Center
Mon 02:07:33 PM 45.4258 -112.2686 67° East 462 532 24,400 -2,516 Descending Salt Lake Center
Mon 02:08:35 PM 45.4358 -112.1050 85° East 418 481 22,100 -2,710 Descending Salt Lake Center
Mon 02:09:37 PM 45.4678 -111.9531 73° East 405 466 18,800 -3,000 Descending Salt Lake Center
Mon 02:10:39 PM 45.5206 -111.8175 61° Northeast 397 457 15,900 -2,468 Descending Salt Lake Center
Mon 02:11:41 PM 45.5664 -111.6992 61° Northeast 351 404 13,700 -2,419 Descending Salt Lake Center
Mon 02:12:43 PM 45.6197 -111.5625 61° Northeast 332 382 10,900 -1,548 Descending Salt Lake Center
Mon 02:13:45 PM 45.6622 -111.4522 61° Northeast 325 374 10,500 -919 Descending Salt Lake Center
Mon 02:14:47 PM 45.7025 -111.3478 61° Northeast 314 361 9,000 -1,296 Descending Salt Lake Center
Mon 02:15:50 PM 45.7236 -111.2514 73° East 290 334 7,800 -1,152 Descending Salt Lake Center
Mon 02:16:52 PM 45.6908 -111.1700 120° Southeast 257 296 6,600 -823 Descending Salt Lake Center
Mon 02:17:54 PM 45.6989 -111.0950 81° East 217 250 6,100 -629 Descending Salt Lake Center
Mon 02:18:56 PM 45.7397 -111.0997 355° North 177 204 5,300 -726 Descending Salt Lake Center
Mon 02:19:58 PM 45.7669 -111.1383 315° West 150 173 4,600 -677 Descending Salt Lake Center

Login

Don't have an account? Register now (free) for customized features, flight alerts, and more!